Time;durP1;ratioP1;P1;durP2;ratioP2;P2;SDS_P1;SDS_P2;PMS_P1;PMS_P2;Temp;Humidity;BMP_temperature;BMP_pressure;BME280_temperature;BME280_humidity;BME280_pressure;Samples;Min_cycle;Max_cycle;Signal;HPM_P1;HPM_P2
2022/05/15 00:01:09;;;;;;;13.25;11.85;;;23.00;85.10;;;;;;5838652;29;92251;-63
2022/05/15 00:04:11;;;;;;;13.90;12.40;;;23.00;85.10;;;;;;5830920;29;94127;-62
2022/05/15 00:07:13;;;;;;;13.32;11.93;;;23.00;85.20;;;;;;5830396;30;94491;-63
2022/05/15 00:10:15;;;;;;;12.90;11.57;;;23.00;85.20;;;;;;5842352;29;93106;-63
2022/05/15 00:13:18;;;;;;;12.63;11.43;;;23.00;85.20;;;;;;5837995;29;93435;-62
2022/05/15 00:16:21;;;;;;;12.85;11.55;;;23.00;85.20;;;;;;5840527;29;94085;-62
2022/05/15 00:19:23;;;;;;;12.85;11.55;;;23.00;85.20;;;;;;5833951;29;94170;-63
2022/05/15 00:22:25;;;;;;;13.48;12.07;;;23.00;85.20;;;;;;5833402;29;95330;-63
2022/05/15 00:25:28;;;;;;;13.10;11.80;;;23.00;85.20;;;;;;5834121;29;93972;-62
2022/05/15 00:28:30;;;;;;;13.38;11.88;;;23.00;85.20;;;;;;5834129;29;94570;-62
2022/05/15 00:31:33;;;;;;;12.57;11.38;;;23.00;85.20;;;;;;5833792;29;94215;-63
2022/05/15 00:38:32;;;;;;;13.75;12.40;;;23.00;85.10;;;;;;5838657;29;92365;-63
2022/05/15 00:41:37;;;;;;;14.18;12.68;;;23.00;85.10;;;;;;5841718;29;94098;-63
2022/05/15 00:44:39;;;;;;;13.85;12.35;;;23.00;85.10;;;;;;5835649;29;93555;-63
2022/05/15 00:47:43;;;;;;;14.13;12.65;;;23.00;85.00;;;;;;5838661;29;93260;-63
2022/05/15 00:50:45;;;;;;;14.68;13.07;;;23.00;85.10;;;;;;5843100;29;94108;-63
2022/05/15 00:53:50;;;;;;;14.88;13.32;;;23.00;85.10;;;;;;5822122;30;95185;-63
2022/05/15 00:56:58;;;;;;;14.32;12.85;;;23.00;85.10;;;;;;5841008;29;94176;-62
2022/05/15 01:00:04;;;;;;;14.20;12.80;;;23.00;85.10;;;;;;5833144;29;94179;-62
2022/05/15 01:03:10;;;;;;;14.52;13.13;;;23.00;85.20;;;;;;5843238;29;94254;-63
2022/05/15 01:06:12;;;;;;;14.98;13.48;;;23.00;85.00;;;;;;5850052;29;94175;-62
2022/05/15 01:09:15;;;;;;;14.23;12.82;;;23.00;85.10;;;;;;5816159;29;94148;-62
2022/05/15 01:12:17;;;;;;;14.23;12.82;;;23.00;85.10;;;;;;5848994;29;95149;-63
2022/05/15 01:15:23;;;;;;;14.20;12.73;;;23.00;85.10;;;;;;5824199;29;93790;-63
2022/05/15 01:18:30;;;;;;;13.77;12.38;;;23.00;85.10;;;;;;5832823;29;94164;-63
2022/05/15 01:21:36;;;;;;;14.82;13.05;;;22.90;85.10;;;;;;5836802;29;93031;-62
2022/05/15 01:24:39;;;;;;;14.38;12.88;;;23.00;85.10;;;;;;5836388;29;95122;-62
2022/05/15 01:27:41;;;;;;;13.88;12.48;;;23.00;85.00;;;;;;5841367;29;94316;-62
2022/05/15 01:30:47;;;;;;;14.57;13.07;;;23.00;85.00;;;;;;5833225;30;94250;-62
2022/05/15 01:33:50;;;;;;;14.48;13.02;;;23.00;85.00;;;;;;5833041;30;94065;-62
2022/05/15 01:36:53;;;;;;;14.63;13.13;;;22.90;84.90;;;;;;5836617;29;94511;-62
2022/05/15 01:39:55;;;;;;;14.35;12.95;;;23.00;85.00;;;;;;5832485;29;92988;-63
2022/05/15 01:42:59;;;;;;;14.13;12.73;;;23.00;85.00;;;;;;5832217;29;94098;-62
2022/05/15 01:46:01;;;;;;;13.57;12.27;;;23.00;85.00;;;;;;5834727;29;93517;-63
2022/05/15 01:49:06;;;;;;;13.60;12.23;;;23.00;85.00;;;;;;5833019;29;94341;-62
2022/05/15 01:52:09;;;;;;;13.82;12.18;;;23.00;85.00;;;;;;5833005;29;93271;-63
2022/05/15 01:55:12;;;;;;;13.57;12.18;;;23.00;85.00;;;;;;5832948;29;95115;-63
2022/05/15 01:58:14;;;;;;;13.70;12.30;;;23.00;85.00;;;;;;5832764;29;94632;-63
2022/05/15 02:01:16;;;;;;;13.00;11.70;;;22.90;85.00;;;;;;5832608;30;94193;-62
2022/05/15 02:04:18;;;;;;;13.60;12.20;;;23.00;85.00;;;;;;5832543;30;94154;-63
2022/05/15 02:07:21;;;;;;;12.88;11.57;;;23.00;85.00;;;;;;5832363;29;94273;-63
2022/05/15 02:10:23;;;;;;;13.35;11.95;;;23.00;85.00;;;;;;5843625;29;93018;-63
2022/05/15 02:13:25;;;;;;;13.48;12.15;;;23.00;85.00;;;;;;5823200;29;94214;-63
2022/05/15 02:16:27;;;;;;;13.48;12.15;;;23.00;85.00;;;;;;5831146;29;93468;-63
2022/05/15 02:19:29;;;;;;;12.68;11.43;;;23.00;84.90;;;;;;5832061;29;94143;-63
2022/05/15 02:22:33;;;;;;;12.48;11.27;;;23.00;84.90;;;;;;5840199;29;93138;-62
2022/05/15 02:25:35;;;;;;;13.65;12.25;;;23.00;85.00;;;;;;5839057;29;95248;-63
2022/05/15 02:28:38;;;;;;;12.73;11.43;;;22.90;84.90;;;;;;5843470;29;93086;-63
2022/05/15 02:31:40;;;;;;;12.98;11.68;;;22.90;85.70;;;;;;5833498;29;94042;-63
2022/05/15 02:34:42;;;;;;;13.35;12.02;;;23.00;85.00;;;;;;5831442;29;93109;-63
2022/05/15 02:37:47;;;;;;;13.13;11.82;;;22.90;84.90;;;;;;5834530;29;94170;-63
2022/05/15 02:40:49;;;;;;;13.13;11.82;;;23.00;85.00;;;;;;5838362;29;93835;-63
2022/05/15 02:43:51;;;;;;;12.38;11.18;;;22.90;84.90;;;;;;5832123;29;94790;-63
2022/05/15 02:46:53;;;;;;;12.23;11.00;;;23.00;85.00;;;;;;5834544;29;92246;-63
2022/05/15 02:53:15;;;;;;;12.35;11.00;;;22.90;85.00;;;;;;5822178;29;92374;-63
2022/05/15 02:56:20;;;;;;;11.38;10.27;;;22.90;85.00;;;;;;5833292;29;95457;-62
2022/05/15 02:59:22;;;;;;;12.07;10.88;;;22.90;85.00;;;;;;5820128;29;92987;-63
2022/05/15 03:02:24;;;;;;;11.65;10.45;;;22.90;84.90;;;;;;5831613;30;94101;-63
2022/05/15 03:05:26;;;;;;;12.40;11.10;;;22.90;84.90;;;;;;5831357;30;94124;-63
2022/05/15 03:08:29;;;;;;;11.23;10.13;;;22.90;84.80;;;;;;5831236;30;94461;-62
2022/05/15 03:11:32;;;;;;;11.88;10.68;;;22.90;84.80;;;;;;5841512;29;94218;-63
2022/05/15 03:14:34;;;;;;;11.45;10.25;;;23.00;84.90;;;;;;5831807;30;94296;-62
2022/05/15 03:17:36;;;;;;;10.55;9.55;;;23.00;84.90;;;;;;5832160;29;93442;-62
2022/05/15 03:20:38;;;;;;;11.25;10.15;;;22.90;84.80;;;;;;5832564;30;95297;-63
2022/05/15 03:23:42;;;;;;;10.73;9.63;;;22.90;84.80;;;;;;5830743;30;94090;-63
2022/05/15 03:26:45;;;;;;;10.77;9.68;;;22.90;84.80;;;;;;5833171;29;95050;-63
2022/05/15 03:29:47;;;;;;;11.18;10.07;;;22.90;84.80;;;;;;5839783;29;94164;-63
2022/05/15 03:32:49;;;;;;;10.63;9.63;;;22.90;84.80;;;;;;5831248;30;94041;-63
2022/05/15 03:35:51;;;;;;;10.73;9.63;;;22.90;84.80;;;;;;5822490;30;94564;-62
2022/05/15 03:38:54;;;;;;;10.27;9.27;;;22.90;84.80;;;;;;5830112;29;94236;-63
2022/05/15 03:41:56;;;;;;;10.10;9.10;;;22.90;84.80;;;;;;5832321;30;94504;-62
2022/05/15 03:44:58;;;;;;;10.45;9.45;;;22.90;84.90;;;;;;5831543;29;94133;-62
2022/05/15 03:48:00;;;;;;;9.63;8.73;;;22.90;84.90;;;;;;5846322;29;93338;-62
2022/05/15 03:51:02;;;;;;;9.98;9.00;;;22.90;84.90;;;;;;5835322;29;94144;-63
2022/05/15 03:54:06;;;;;;;9.95;8.95;;;22.90;84.90;;;;;;5835271;30;93090;-63
2022/05/15 03:57:09;;;;;;;9.32;8.43;;;22.90;84.70;;;;;;5834582;29;95133;-63
2022/05/15 04:00:14;;;;;;;10.07;9.07;;;22.90;84.70;;;;;;5835236;29;93062;-63
2022/05/15 04:03:16;;;;;;;9.25;8.35;;;22.90;84.70;;;;;;5835523;29;94363;-63
2022/05/15 04:06:17;;;;;;;9.40;8.50;;;22.90;84.80;;;;;;5834988;29;94029;-63
2022/05/15 04:09:22;;;;;;;9.23;8.32;;;22.90;84.70;;;;;;5836099;29;94165;-63
2022/05/15 04:12:24;;;;;;;9.45;8.55;;;23.00;84.80;;;;;;5837284;29;94259;-62
2022/05/15 04:15:26;;;;;;;9.50;8.60;;;22.90;84.70;;;;;;5827457;29;94184;-63
2022/05/15 04:18:28;;;;;;;9.57;8.68;;;22.90;84.80;;;;;;5836172;30;93427;-63
2022/05/15 04:21:36;;;;;;;9.30;8.30;;;22.80;84.70;;;;;;5834693;30;94102;-63
2022/05/15 04:24:40;;;;;;;8.88;8.07;;;22.90;84.80;;;;;;5835017;29;94263;-63
2022/05/15 04:27:42;;;;;;;8.63;7.82;;;22.90;84.80;;;;;;5835587;29;95066;-63
2022/05/15 04:30:44;;;;;;;8.70;7.80;;;22.90;84.80;;;;;;5842286;29;94262;-63
2022/05/15 04:33:46;;;;;;;8.63;7.72;;;22.90;84.80;;;;;;5834857;30;94239;-63
2022/05/15 04:36:48;;;;;;;8.50;7.70;;;22.90;84.80;;;;;;5834793;29;94230;-62
2022/05/15 04:39:52;;;;;;;8.90;8.05;;;22.90;84.70;;;;;;5834311;30;92922;-63
2022/05/15 04:42:54;;;;;;;8.30;7.50;;;23.00;84.80;;;;;;5834582;30;94372;-63
2022/05/15 04:45:56;;;;;;;8.43;7.63;;;22.90;84.70;;;;;;5830807;29;94278;-63
2022/05/15 04:48:58;;;;;;;8.75;7.85;;;22.90;84.70;;;;;;5834534;29;93398;-63
2022/05/15 04:52:00;;;;;;;8.30;7.50;;;23.00;84.70;;;;;;5833990;30;94260;-62
2022/05/15 04:55:03;;;;;;;8.80;7.90;;;22.90;84.70;;;;;;5834150;30;94320;-63
2022/05/15 04:58:06;;;;;;;8.32;7.53;;;23.00;84.70;;;;;;5832958;30;95066;-63
2022/05/15 05:01:08;;;;;;;8.45;7.65;;;23.00;84.60;;;;;;5833835;29;94225;-62
2022/05/15 05:04:10;;;;;;;8.48;7.68;;;23.00;84.70;;;;;;5833580;29;94060;-63
2022/05/15 05:07:12;;;;;;;8.40;7.60;;;23.00;84.60;;;;;;5833973;30;93108;-63
2022/05/15 05:10:16;;;;;;;8.20;7.40;;;23.00;84.60;;;;;;5843051;29;94312;-63
2022/05/15 05:13:18;;;;;;;8.20;7.40;;;23.00;84.70;;;;;;5823558;29;94177;-63
2022/05/15 05:16:20;;;;;;;8.13;7.32;;;23.00;84.70;;;;;;5834365;29;94169;-63
2022/05/15 05:19:22;;;;;;;7.68;6.97;;;23.00;84.60;;;;;;5834809;29;92326;-63
2022/05/15 05:22:24;;;;;;;7.80;7.07;;;23.00;84.50;;;;;;5834165;29;94076;-61
2022/05/15 05:25:27;;;;;;;7.90;6.97;;;23.00;84.40;;;;;;5834187;29;94109;-63
2022/05/15 05:28:29;;;;;;;7.45;6.75;;;23.10;84.40;;;;;;5835631;29;95128;-62
2022/05/15 05:31:32;;;;;;;7.30;6.60;;;23.10;84.40;;;;;;5842081;29;94074;-63
2022/05/15 05:34:34;;;;;;;7.78;6.97;;;23.10;84.40;;;;;;5833415;29;94329;-63
2022/05/15 05:37:36;;;;;;;7.72;6.88;;;23.10;84.40;;;;;;5834054;29;94257;-63
2022/05/15 05:40:40;;;;;;;7.28;6.57;;;23.10;85.20;;;;;;5833579;29;94258;-63
2022/05/15 05:43:42;;;;;;;7.22;6.53;;;23.10;84.40;;;;;;5832559;30;94296;-63
2022/05/15 05:46:44;;;;;;;7.30;6.60;;;23.10;84.40;;;;;;5836629;29;94253;-63
2022/05/15 05:49:45;;;;;;;6.95;6.10;;;23.10;84.40;;;;;;5832148;29;93437;-63
2022/05/15 05:52:47;;;;;;;6.88;6.18;;;23.10;84.40;;;;;;5827938;29;94517;-63
2022/05/15 05:55:51;;;;;;;7.15;6.45;;;23.10;84.40;;;;;;5833530;29;94135;-62
2022/05/15 05:58:53;;;;;;;6.43;5.82;;;23.10;84.40;;;;;;5821397;29;95424;-63
2022/05/15 06:01:55;;;;;;;7.07;6.40;;;23.10;84.40;;;;;;5833676;29;94167;-63
2022/05/15 06:04:57;;;;;;;6.32;5.72;;;23.10;84.50;;;;;;5821923;30;94188;-63
2022/05/15 06:07:59;;;;;;;7.40;6.53;;;23.10;84.40;;;;;;5821222;29;94121;-63
2022/05/15 06:11:02;;;;;;;6.15;5.65;;;23.10;84.50;;;;;;5837445;29;94178;-62
2022/05/15 06:14:04;;;;;;;6.78;5.85;;;23.10;84.50;;;;;;5833023;29;94169;-62
2022/05/15 06:17:07;;;;;;;6.82;6.22;;;23.10;84.50;;;;;;5833075;29;94160;-63
2022/05/15 06:20:11;;;;;;;6.32;5.72;;;23.20;84.70;;;;;;5833727;30;92320;-62
2022/05/15 06:23:13;;;;;;;7.00;6.40;;;23.20;84.60;;;;;;5833380;29;94508;-63
2022/05/15 06:26:16;;;;;;;7.15;6.45;;;23.10;84.50;;;;;;5823861;29;94186;-63
2022/05/15 06:29:18;;;;;;;6.25;5.65;;;23.10;84.50;;;;;;5838815;29;95066;-62
2022/05/15 06:32:20;;;;;;;6.30;5.72;;;23.20;84.50;;;;;;5828290;29;94295;-63
2022/05/15 06:35:23;;;;;;;6.65;6.05;;;23.20;84.50;;;;;;5822736;29;94192;-62
2022/05/15 06:38:25;;;;;;;6.57;5.93;;;23.10;84.50;;;;;;5827348;30;94347;-63
2022/05/15 06:41:28;;;;;;;6.50;5.90;;;23.20;84.50;;;;;;5832431;29;94154;-63
2022/05/15 06:44:30;;;;;;;6.70;6.00;;;23.20;84.60;;;;;;5831745;29;94184;-62
2022/05/15 06:47:32;;;;;;;6.70;6.10;;;23.20;84.70;;;;;;5828988;29;94282;-63
2022/05/15 06:50:34;;;;;;;6.60;6.00;;;23.20;84.70;;;;;;5832693;30;93382;-63
2022/05/15 06:53:37;;;;;;;6.80;6.20;;;23.20;84.80;;;;;;5822473;29;94268;-63
2022/05/15 07:00:01;;;;;;;6.15;5.57;;;23.20;84.70;;;;;;5831563;30;93306;-63
2022/05/15 07:03:03;;;;;;;6.30;5.70;;;23.20;84.80;;;;;;5822943;29;94301;-62
2022/05/15 07:06:05;;;;;;;6.70;6.10;;;23.20;84.80;;;;;;5822079;29;94521;-63
2022/05/15 07:09:07;;;;;;;6.00;5.50;;;23.20;84.80;;;;;;5828111;29;94509;-62
2022/05/15 07:12:11;;;;;;;6.70;6.10;;;23.20;84.80;;;;;;5836320;29;94140;-63
2022/05/15 07:15:13;;;;;;;6.18;5.57;;;23.20;84.80;;;;;;5832079;29;94233;-63
2022/05/15 07:18:15;;;;;;;6.45;5.85;;;23.20;84.90;;;;;;5832037;30;94098;-62
2022/05/15 07:21:17;;;;;;;6.38;5.78;;;23.20;84.80;;;;;;5832156;30;93503;-63
2022/05/15 07:24:20;;;;;;;5.93;5.43;;;23.20;84.90;;;;;;5831596;29;94157;-63
2022/05/15 07:27:24;;;;;;;6.07;5.47;;;23.20;84.90;;;;;;5833978;29;94161;-62
2022/05/15 07:30:26;;;;;;;6.13;5.53;;;23.20;84.90;;;;;;5838904;29;96447;-63
2022/05/15 07:33:29;;;;;;;6.05;5.45;;;23.20;84.80;;;;;;5831673;30;94119;-62
2022/05/15 07:36:31;;;;;;;5.70;5.20;;;23.20;84.80;;;;;;5832335;29;94158;-63
2022/05/15 07:39:33;;;;;;;6.13;5.50;;;23.20;84.90;;;;;;5831942;29;94649;-63
2022/05/15 07:42:38;;;;;;;6.20;5.60;;;23.20;84.80;;;;;;5831440;29;94295;-62
2022/05/15 07:45:40;;;;;;;6.00;5.40;;;23.20;85.00;;;;;;5828758;30;94182;-63
2022/05/15 07:48:42;;;;;;;6.18;5.57;;;23.20;84.90;;;;;;5842734;29;94134;-62
2022/05/15 07:51:45;;;;;;;5.72;5.22;;;23.20;85.00;;;;;;5823656;30;93454;-63
2022/05/15 07:54:47;;;;;;;5.80;5.30;;;23.20;85.00;;;;;;5828555;30;94107;-62
2022/05/15 07:57:51;;;;;;;5.97;5.38;;;23.20;85.00;;;;;;5831348;30;94187;-63
2022/05/15 08:00:54;;;;;;;5.55;5.05;;;23.30;85.10;;;;;;5831066;30;95074;-63
2022/05/15 08:03:56;;;;;;;5.68;5.18;;;23.20;85.00;;;;;;5827228;30;94102;-63
2022/05/15 08:10:17;;;;;;;5.65;5.15;;;23.30;85.00;;;;;;5836650;29;92447;-63
2022/05/15 08:13:24;;;;;;;5.93;5.43;;;23.20;85.00;;;;;;5822188;30;94189;-62
2022/05/15 08:16:27;;;;;;;5.25;4.75;;;23.20;85.00;;;;;;5830141;30;94212;-62
2022/05/15 08:26:08;;;;;;;5.20;4.70;;;23.20;85.00;;;;;;5829972;30;92378;-62
2022/05/15 08:29:12;;;;;;;5.28;4.82;;;23.20;85.00;;;;;;5837446;29;94182;-62
2022/05/15 08:32:14;;;;;;;4.78;4.38;;;23.20;85.00;;;;;;5835949;29;95017;-61
2022/05/15 08:35:18;;;;;;;5.18;4.68;;;23.20;85.10;;;;;;5822946;29;94084;-62
2022/05/15 08:38:21;;;;;;;5.43;4.93;;;23.20;85.20;;;;;;5833588;29;94032;-62
2022/05/15 08:41:37;;;;;;;5.10;4.65;;;23.20;85.20;;;;;;5834581;29;94641;-63
2022/05/15 08:44:44;;;;;;;4.80;4.40;;;23.20;85.30;;;;;;5834662;29;93910;-62
2022/05/15 08:47:48;;;;;;;5.03;4.63;;;23.20;85.40;;;;;;5833830;29;94152;-63
2022/05/15 08:50:51;;;;;;;5.28;4.78;;;23.20;85.40;;;;;;5835220;29;93722;-62
2022/05/15 08:53:53;;;;;;;5.45;4.97;;;23.20;85.30;;;;;;5834765;29;93508;-63
2022/05/15 08:56:56;;;;;;;5.00;4.60;;;23.20;85.30;;;;;;5834310;29;94187;-63
2022/05/15 09:00:01;;;;;;;5.20;4.80;;;23.20;85.30;;;;;;5824414;29;94047;-62
2022/05/15 09:03:12;;;;;;;5.57;4.97;;;23.20;85.20;;;;;;5832933;29;95625;-63
2022/05/15 09:06:26;;;;;;;4.82;4.43;;;23.20;85.30;;;;;;5824927;29;94189;-63
2022/05/15 09:09:38;;;;;;;4.85;4.45;;;23.20;85.40;;;;;;5836708;29;94497;-62
2022/05/15 09:12:50;;;;;;;4.93;4.53;;;23.20;85.40;;;;;;5839517;29;95135;-63
2022/05/15 09:15:59;;;;;;;4.95;4.53;;;23.20;85.40;;;;;;5833247;29;94975;-63
2022/05/15 09:19:02;;;;;;;5.13;4.63;;;23.20;85.40;;;;;;5834166;29;93095;-63
2022/05/15 09:22:05;;;;;;;5.15;4.65;;;23.20;85.50;;;;;;5834480;29;94141;-63
2022/05/15 09:25:15;;;;;;;4.78;4.38;;;23.20;85.60;;;;;;5833875;30;93622;-63
2022/05/15 09:28:17;;;;;;;4.70;4.30;;;23.20;85.70;;;;;;5835712;29;93091;-62
2022/05/15 09:31:28;;;;;;;5.13;4.63;;;23.20;85.70;;;;;;5841947;29;94076;-63
2022/05/15 09:34:33;;;;;;;4.53;4.13;;;23.20;85.70;;;;;;5833488;30;95215;-63
2022/05/15 09:44:34;;;;;;;4.70;4.30;;;23.20;85.70;;;;;;5825265;29;93273;-63
2022/05/15 09:47:39;;;;;;;4.70;4.30;;;23.20;85.70;;;;;;5844804;29;94172;-63
2022/05/15 09:50:52;;;;;;;4.38;3.97;;;23.20;85.70;;;;;;5833685;29;94177;-63
2022/05/15 09:53:56;;;;;;;4.50;4.10;;;23.20;85.70;;;;;;5833307;29;94064;-63
2022/05/15 09:57:10;;;;;;;5.50;4.15;;;23.20;85.80;;;;;;5821795;29;92522;-62
2022/05/15 10:00:14;;;;;;;4.55;4.15;;;23.20;85.80;;;;;;5833251;29;94396;-63
2022/05/15 10:03:23;;;;;;;4.45;4.05;;;23.20;85.80;;;;;;5833478;29;94094;-62
2022/05/15 10:06:27;;;;;;;4.50;4.10;;;23.20;85.90;;;;;;5821395;30;95122;-63
2022/05/15 10:09:32;;;;;;;4.88;4.47;;;23.20;85.90;;;;;;5824448;29;94608;-62
2022/05/15 10:12:34;;;;;;;4.40;4.00;;;23.10;86.90;;;;;;5839609;29;94745;-63
2022/05/15 10:15:41;;;;;;;4.28;3.90;;;23.20;86.10;;;;;;5833112;29;94566;-62
2022/05/15 10:18:53;;;;;;;4.40;4.00;;;23.20;86.10;;;;;;5832749;29;94172;-63
2022/05/15 10:22:05;;;;;;;4.35;3.90;;;23.20;86.10;;;;;;5820080;30;94480;-63
2022/05/15 10:25:16;;;;;;;4.72;4.32;;;23.20;86.10;;;;;;5824304;29;94119;-63
2022/05/15 10:28:35;;;;;;;4.50;4.10;;;23.20;86.10;;;;;;5834913;29;93459;-63
2022/05/15 10:31:46;;;;;;;4.45;4.05;;;23.20;86.10;;;;;;5832900;29;94144;-63
2022/05/15 10:34:49;;;;;;;4.40;4.00;;;23.20;86.10;;;;;;5832934;30;93076;-63
2022/05/15 10:38:04;;;;;;;3.90;3.60;;;23.20;85.90;;;;;;5832551;29;95023;-63
2022/05/15 10:41:16;;;;;;;4.40;4.00;;;23.20;85.90;;;;;;5821058;29;94154;-63
2022/05/15 10:44:30;;;;;;;4.10;3.70;;;23.20;86.90;;;;;;5831123;30;94139;-63
2022/05/15 10:47:38;;;;;;;4.40;4.00;;;23.20;85.90;;;;;;5836627;29;94842;-62
2022/05/15 10:50:51;;;;;;;4.30;3.90;;;23.20;86.00;;;;;;5823632;29;94143;-63
2022/05/15 10:57:43;;;;;;;4.25;3.90;;;23.20;86.00;;;;;;5832614;29;92407;-63
2022/05/15 11:00:55;;;;;;;3.97;3.67;;;23.20;86.10;;;;;;5832546;29;93599;-63
2022/05/15 11:04:10;;;;;;;3.88;3.58;;;23.20;86.20;;;;;;5832188;29;94128;-63
2022/05/15 11:07:21;;;;;;;4.40;4.00;;;23.20;86.10;;;;;;5831901;29;93064;-63
2022/05/15 11:10:27;;;;;;;3.90;3.60;;;23.20;86.20;;;;;;5841990;29;94060;-63
2022/05/15 11:13:35;;;;;;;4.25;3.85;;;23.20;86.10;;;;;;5810480;30;94185;-62
2022/05/15 11:16:44;;;;;;;3.80;3.50;;;23.20;86.00;;;;;;5832011;29;94115;-63
2022/05/15 11:19:47;;;;;;;4.00;3.65;;;23.20;86.10;;;;;;5831786;29;94060;-63
2022/05/15 11:22:55;;;;;;;4.15;3.63;;;23.20;86.00;;;;;;5831222;30;94203;-63
2022/05/15 11:26:01;;;;;;;3.70;3.40;;;23.20;85.90;;;;;;5820025;29;94093;-63
2022/05/15 11:29:07;;;;;;;3.70;3.40;;;23.20;86.80;;;;;;5836602;29;94096;-63
2022/05/15 11:32:28;;;;;;;3.90;3.60;;;23.20;85.90;;;;;;5836473;29;93435;-63
2022/05/15 11:35:33;;;;;;;3.72;3.40;;;23.20;85.90;;;;;;5831231;30;94470;-62
2022/05/15 11:38:47;;;;;;;4.03;3.65;;;23.20;85.90;;;;;;5820291;30;93418;-63
2022/05/15 11:42:15;;;;;;;3.60;3.30;;;23.20;85.90;;;;;;5824988;30;95160;-63
2022/05/15 11:45:39;;;;;;;3.60;3.30;;;23.20;85.90;;;;;;5821901;30;94280;-63
2022/05/15 11:48:58;;;;;;;3.60;3.30;;;23.20;85.90;;;;;;5842901;29;94247;-63
2022/05/15 11:52:16;;;;;;;3.70;3.40;;;23.20;86.00;;;;;;5809849;30;94235;-63
2022/05/15 11:55:56;;;;;;;4.20;3.80;;;23.20;86.00;;;;;;5821536;30;94230;-63
2022/05/15 11:59:00;;;;;;;4.15;3.75;;;23.30;86.10;;;;;;5824551;29;94203;-63
2022/05/15 12:02:04;;;;;;;3.63;3.33;;;23.20;86.00;;;;;;5831248;29;94168;-63
2022/05/15 12:05:09;;;;;;;3.50;3.20;;;23.20;86.10;;;;;;5830924;29;93445;-63
2022/05/15 12:08:32;;;;;;;3.63;3.33;;;23.20;85.90;;;;;;5834311;29;94117;-63
2022/05/15 12:11:36;;;;;;;3.45;3.15;;;23.20;85.90;;;;;;5844801;29;94187;-63
2022/05/15 12:14:38;;;;;;;4.38;3.17;;;23.20;85.90;;;;;;5834919;29;94147;-63
2022/05/15 12:17:43;;;;;;;3.70;3.40;;;23.20;86.70;;;;;;5817974;29;93036;-62
2022/05/15 12:20:47;;;;;;;3.60;3.30;;;23.20;85.80;;;;;;5829616;29;94185;-63
2022/05/15 12:27:22;;;;;;;3.70;3.40;;;23.20;85.70;;;;;;5817737;29;93857;-62
2022/05/15 12:30:24;;;;;;;3.50;3.20;;;23.30;85.80;;;;;;5838058;29;94101;-63
2022/05/15 12:33:30;;;;;;;3.53;3.22;;;23.20;85.70;;;;;;5834587;29;94201;-63
2022/05/15 12:36:35;;;;;;;3.40;3.10;;;23.30;85.70;;;;;;5834853;29;94439;-63
2022/05/15 12:39:41;;;;;;;3.42;3.08;;;23.20;85.80;;;;;;5834712;29;94153;-63
2022/05/15 12:42:45;;;;;;;3.58;3.28;;;23.20;85.80;;;;;;5835578;29;93255;-63
2022/05/15 12:45:47;;;;;;;3.38;3.10;;;23.20;85.80;;;;;;5826135;29;95229;-63
2022/05/15 12:48:49;;;;;;;3.40;3.10;;;23.20;85.90;;;;;;5842646;29;94095;-63
2022/05/15 12:51:51;;;;;;;3.50;3.20;;;23.20;85.90;;;;;;5823018;29;95298;-63
2022/05/15 12:54:57;;;;;;;4.13;3.45;;;23.20;86.10;;;;;;5832165;29;94094;-63
2022/05/15 12:58:05;;;;;;;3.28;2.97;;;23.30;86.70;;;;;;5820579;29;94213;-64
2022/05/15 13:01:07;;;;;;;3.35;3.13;;;23.20;86.60;;;;;;5827061;29;94027;-63
2022/05/15 13:04:17;;;;;;;3.30;3.00;;;23.20;86.30;;;;;;5835313;29;94149;-63
2022/05/15 13:07:24;;;;;;;4.50;3.17;;;23.20;86.20;;;;;;5818698;29;93606;-63
2022/05/15 13:10:28;;;;;;;3.38;3.08;;;23.20;86.20;;;;;;5825650;29;93042;-63
2022/05/15 13:13:34;;;;;;;3.42;3.13;;;23.20;86.30;;;;;;5831852;30;94160;-63
2022/05/15 13:16:42;;;;;;;3.42;3.00;;;23.20;86.40;;;;;;5832664;29;95515;-63
2022/05/15 13:19:47;;;;;;;3.30;3.00;;;23.30;86.60;;;;;;5827724;29;94414;-64
2022/05/15 13:22:50;;;;;;;3.42;3.10;;;23.20;86.70;;;;;;5829717;29;93242;-63
2022/05/15 13:25:55;;;;;;;3.20;2.90;;;23.20;86.90;;;;;;5834294;29;93114;-63
2022/05/15 13:29:01;;;;;;;3.30;2.97;;;23.30;86.90;;;;;;5840828;29;94147;-63
2022/05/15 13:32:05;;;;;;;3.47;2.90;;;23.20;86.90;;;;;;5840795;29;94094;-63
2022/05/15 13:35:08;;;;;;;3.22;2.80;;;23.30;86.90;;;;;;5833580;29;94184;-62
2022/05/15 13:38:18;;;;;;;3.20;2.90;;;23.20;86.70;;;;;;5834224;29;93586;-63
2022/05/15 13:44:41;;;;;;;3.40;3.10;;;23.20;86.70;;;;;;5833924;29;92424;-63
2022/05/15 13:48:03;;;;;;;3.20;2.90;;;23.20;86.60;;;;;;5830152;29;95081;-63
2022/05/15 13:51:05;;;;;;;3.50;3.20;;;23.20;86.60;;;;;;5824744;30;94120;-63
2022/05/15 13:54:12;;;;;;;3.22;2.92;;;23.30;86.60;;;;;;5833656;29;94170;-63
2022/05/15 13:57:14;;;;;;;3.13;2.90;;;23.20;86.40;;;;;;5833810;29;94209;-63
2022/05/15 14:00:26;;;;;;;3.42;3.03;;;23.30;86.50;;;;;;5833775;29;94147;-63
2022/05/15 14:03:31;;;;;;;3.28;2.70;;;23.20;86.40;;;;;;5833054;29;93039;-63
2022/05/15 14:06:34;;;;;;;3.42;3.00;;;23.30;86.40;;;;;;5833083;29;94231;-63
2022/05/15 14:09:48;;;;;;;2.83;2.63;;;23.20;86.40;;;;;;5837736;29;93433;-63
2022/05/15 14:13:00;;;;;;;3.53;2.85;;;23.30;86.40;;;;;;5836996;29;94211;-63
2022/05/15 14:16:16;;;;;;;3.42;3.13;;;23.20;86.30;;;;;;5833049;30;94415;-63
2022/05/15 14:19:20;;;;;;;3.22;2.92;;;23.20;86.20;;;;;;5832327;29;95091;-64
2022/05/15 14:22:22;;;;;;;3.20;2.90;;;23.30;86.30;;;;;;5832838;29;94209;-63
2022/05/15 14:25:24;;;;;;;3.30;3.00;;;23.20;86.20;;;;;;5829420;29;92936;-64
2022/05/15 14:28:26;;;;;;;3.00;2.70;;;23.30;86.20;;;;;;5817192;29;94287;-63
2022/05/15 14:31:39;;;;;;;3.10;2.90;;;23.30;86.30;;;;;;5840018;29;94066;-63
2022/05/15 14:34:41;;;;;;;3.25;2.95;;;23.30;86.20;;;;;;5832853;29;94137;-63
2022/05/15 14:37:45;;;;;;;3.35;3.05;;;23.30;86.10;;;;;;5833024;29;94204;-64
2022/05/15 14:40:47;;;;;;;3.63;2.67;;;23.30;86.10;;;;;;5821974;30;93372;-63
2022/05/15 14:43:49;;;;;;;2.88;2.60;;;23.20;85.90;;;;;;5832618;29;94093;-64
2022/05/15 14:46:55;;;;;;;3.15;2.70;;;23.20;85.90;;;;;;5840011;29;94081;-63
2022/05/15 14:49:57;;;;;;;2.60;2.40;;;23.30;86.00;;;;;;5835019;29;95334;-63
2022/05/15 14:53:02;;;;;;;2.70;2.50;;;23.20;85.90;;;;;;5832101;30;94097;-64
2022/05/15 14:56:08;;;;;;;2.72;2.53;;;23.30;86.00;;;;;;5832802;30;94214;-63
2022/05/15 14:59:15;;;;;;;2.90;2.70;;;23.30;86.00;;;;;;5832473;29;94307;-63
2022/05/15 15:02:18;;;;;;;2.67;2.47;;;23.20;85.90;;;;;;5832954;29;94256;-63
2022/05/15 15:05:20;;;;;;;2.85;2.65;;;23.30;86.00;;;;;;5843116;29;94126;-63
2022/05/15 15:08:26;;;;;;;2.70;2.50;;;23.30;86.10;;;;;;5831369;30;94113;-63
2022/05/15 15:11:30;;;;;;;3.28;2.90;;;23.30;86.10;;;;;;5842255;29;93289;-64
2022/05/15 15:14:32;;;;;;;3.22;2.70;;;23.20;85.90;;;;;;5832384;29;94145;-62
2022/05/15 15:17:35;;;;;;;3.03;2.65;;;23.20;85.90;;;;;;5832156;30;94202;-63
2022/05/15 15:20:40;;;;;;;2.88;2.58;;;23.30;85.90;;;;;;5831540;30;95045;-63
2022/05/15 15:23:42;;;;;;;2.60;2.40;;;23.30;85.90;;;;;;5832240;30;94159;-63
2022/05/15 15:26:45;;;;;;;2.85;2.65;;;23.30;85.90;;;;;;5833523;29;93091;-64
2022/05/15 15:29:47;;;;;;;3.40;2.50;;;23.20;85.80;;;;;;5839815;29;93383;-62
2022/05/15 15:32:50;;;;;;;2.50;2.30;;;23.20;85.80;;;;;;5832066;30;94114;-63
2022/05/15 15:35:53;;;;;;;2.60;2.25;;;23.20;85.70;;;;;;5832124;30;92886;-63
2022/05/15 15:38:55;;;;;;;2.60;2.40;;;23.30;85.70;;;;;;5832036;30;94338;-63
2022/05/15 15:41:57;;;;;;;2.80;2.42;;;23.30;85.80;;;;;;5835323;29;92208;-63
2022/05/15 15:45:00;;;;;;;4.45;2.63;;;23.30;85.80;;;;;;5835363;29;94486;-63
2022/05/15 15:48:04;;;;;;;2.63;2.42;;;23.20;85.70;;;;;;5842916;29;94208;-63
2022/05/15 15:51:19;;;;;;;2.67;2.47;;;23.30;85.80;;;;;;5834673;29;95049;-63
2022/05/15 15:54:21;;;;;;;2.83;2.63;;;23.30;85.90;;;;;;5835299;29;92955;-63
2022/05/15 15:57:23;;;;;;;2.97;2.45;;;23.30;85.90;;;;;;5824072;30;94238;-64
2022/05/15 16:00:26;;;;;;;2.78;2.58;;;23.30;85.90;;;;;;5835749;29;94113;-64
2022/05/15 16:03:30;;;;;;;2.70;2.50;;;23.20;86.70;;;;;;5835080;29;94682;-63
2022/05/15 16:06:33;;;;;;;2.45;2.25;;;23.30;85.80;;;;;;5835632;29;94114;-64
2022/05/15 16:09:36;;;;;;;2.70;2.50;;;23.30;85.70;;;;;;5837358;29;94157;-64
2022/05/15 16:12:41;;;;;;;2.50;2.30;;;23.30;85.70;;;;;;5836906;29;93404;-63
2022/05/15 16:15:45;;;;;;;2.70;2.50;;;23.30;85.70;;;;;;5835282;29;94177;-64
2022/05/15 16:18:48;;;;;;;2.70;2.50;;;23.30;85.60;;;;;;5834354;29;94130;-63
2022/05/15 16:21:58;;;;;;;2.70;2.50;;;23.30;85.60;;;;;;5834604;29;95207;-63
2022/05/15 16:25:03;;;;;;;2.58;2.38;;;23.30;85.70;;;;;;5835271;30;93154;-64
2022/05/15 16:28:05;;;;;;;2.45;2.20;;;23.30;85.60;;;;;;5837506;29;94233;-63
2022/05/15 16:31:08;;;;;;;3.65;2.60;;;23.30;85.70;;;;;;5842317;29;94189;-63
2022/05/15 16:34:12;;;;;;;2.50;2.30;;;23.30;85.70;;;;;;5823754;29;94076;-63